Columbia — WDD6400 — position and weather

sailwx.info

Track history (hours):
 
Tides and Currents Weather Stations Pressure Air Temp Water Temp Dewpoint Dewpoint Depression Visibility Wind Speed Wind Dir Waves Ship Positions

Columbia

Owner: OSG Ship Management Inc., Tampa, FL. More information available from US FCC via Universal Licensing System and Coast Guard Vessel Documentation Center.

Last reported at 2016-Jul-25 12:31 UTC. Time now 2016-Jul-30 22:39 UTC.
Position N 29°46' W 093°21'.

Length 194 m; draft 9.6 m.

Type: Towing. MMSI: 367172440.

Date/timePositionNaut miles runAvg speedWind from/ knotsBaromVisibWave heightAir tempDewpointWater temp
2016-Jul-25 12:31N 29°46' W 093°21'7 7.2
2016-Jul-25 11:33N 29°53' W 093°21'8 7.6
2016-Jul-25 10:33N 30°01' W 093°20'7 7.2
2016-Jul-25 09:33N 30°08' W 093°20'3 2.7
2016-Jul-25 08:33N 30°11' W 093°19'0 0.0
2016-Jul-25 07:33N 30°11' W 093°19'0 0.0
2016-Jul-25 06:33N 30°11' W 093°19'0 0.0
2016-Jul-25 05:33N 30°11' W 093°19'0 0.0
2016-Jul-25 04:33N 30°11' W 093°19'0 0.0
2016-Jul-25 03:33N 30°11' W 093°19'0 0.0
2016-Jul-25 02:33N 30°11' W 093°19'0 0.0
2016-Jul-25 01:33N 30°11' W 093°19'0 0.0
2016-Jul-25 00:33N 30°11' W 093°19'0 0.0
2016-Jul-24 23:33N 30°11' W 093°19'0 0.0
2016-Jul-24 22:33N 30°11' W 093°19'0 0.0
2016-Jul-24 21:33N 30°11' W 093°19'0 0.0
2016-Jul-24 20:33N 30°11' W 093°19'0 0.0
2016-Jul-24 19:33N 30°11' W 093°19'0 0.0
2016-Jul-24 18:33N 30°11' W 093°19'0 0.0
2016-Jul-24 17:33N 30°11' W 093°19'0 0.0
2016-Jul-24 16:33N 30°11' W 093°19'0 0.0
2016-Jul-24 15:33N 30°11' W 093°19'0 0.0
2016-Jul-24 14:33N 30°11' W 093°19'0 0.0
2016-Jul-24 13:33N 30°11' W 093°19'0 0.0
2016-Jul-24 12:33N 30°11' W 093°19'0 0.0
2016-Jul-24 11:33N 30°11' W 093°19'1 1.2
2016-Jul-24 10:33N 30°11' W 093°18'0 0.0
2016-Jul-24 09:33N 30°11' W 093°18'0 0.0
2016-Jul-24 08:33N 30°11' W 093°18'0 0.0
2016-Jul-24 07:33N 30°11' W 093°18'0 0.0
2016-Jul-24 06:33N 30°11' W 093°18'0 0.0
2016-Jul-24 05:33N 30°11' W 093°18'0 0.0
2016-Jul-24 04:33N 30°11' W 093°18'0 0.0
2016-Jul-24 03:33N 30°11' W 093°18'0 0.0
2016-Jul-24 02:33N 30°11' W 093°18'0 0.0
2016-Jul-24 01:33N 30°11' W 093°18'0 0.0
2016-Jul-24 00:32N 30°11' W 093°18'0 0.0
2016-Jul-23 23:33N 30°11' W 093°18'0 0.0
2016-Jul-23 22:33N 30°11' W 093°18'0 0.0
2016-Jul-23 21:33N 30°11' W 093°18'0 0.0
2016-Jul-23 20:33N 30°11' W 093°18'0 0.0
2016-Jul-23 19:33N 30°11' W 093°18'0 0.0
2016-Jul-23 18:33N 30°11' W 093°18'1 1.2
2016-Jul-23 17:33N 30°11' W 093°19'0 0.4
2016-Jul-23 16:33N 30°11' W 093°19'6 6.5
2016-Jul-23 15:33N 30°05' W 093°20'9 9.5
2016-Jul-23 14:33N 29°55' W 093°20'1110.7
2016-Jul-23 13:33N 29°44' W 093°20'4 4.1
2016-Jul-23 12:33N 29°41' W 093°18'1 0.3
2016-Jul-23 10:32N 29°41' W 093°19'0 0.0
2016-Jul-23 09:08N 29°41' W 093°19'0 0.0
2016-Jul-23 06:25N 29°41' W 093°19'0 0.0
2016-Jul-23 04:19N 29°41' W 093°19'0 0.0
2016-Jul-23 03:19N 29°41' W 093°19'0 0.0
2016-Jul-23 02:04N 29°41' W 093°19'0 0.0
2016-Jul-23 01:25N 29°41' W 093°19'0 0.0
2016-Jul-22 23:19N 29°41' W 093°19'0 0.0
2016-Jul-22 20:16N 29°41' W 093°19'0 0.0
2016-Jul-22 19:28N 29°41' W 093°19'0 0.0
2016-Jul-22 18:31N 29°41' W 093°19'0 0.0
2016-Jul-22 17:33N 29°41' W 093°19'0 0.0
2016-Jul-22 16:33N 29°41' W 093°19'  
Track history (hours):
 
Tides and Currents Weather Stations Pressure Air Temp Water Temp Dewpoint Dewpoint Depression Visibility Wind Speed Wind Dir Waves Ship Positions

Columbia

Owner: OSG Ship Management Inc., Tampa, FL. More information available from US FCC via Universal Licensing System and Coast Guard Vessel Documentation Center.

Last reported at 2016-Jul-25 12:31 UTC. Time now 2016-Jul-30 22:39 UTC.
Position N 29°46' W 093°21'.

Length 194 m; draft 9.6 m.

Type: Towing. MMSI: 367172440.

Date/timePositionNaut miles runAvg speedWind from/ knotsBaromVisibWave heightAir tempDewpointWater temp
2016-Jul-25 12:31N 29°46' W 093°21'7 7.2
2016-Jul-25 11:33N 29°53' W 093°21'8 7.6
2016-Jul-25 10:33N 30°01' W 093°20'7 7.2
2016-Jul-25 09:33N 30°08' W 093°20'3 2.7
2016-Jul-25 08:33N 30°11' W 093°19'0 0.0
2016-Jul-25 07:33N 30°11' W 093°19'0 0.0
2016-Jul-25 06:33N 30°11' W 093°19'0 0.0
2016-Jul-25 05:33N 30°11' W 093°19'0 0.0
2016-Jul-25 04:33N 30°11' W 093°19'0 0.0
2016-Jul-25 03:33N 30°11' W 093°19'0 0.0
2016-Jul-25 02:33N 30°11' W 093°19'0 0.0
2016-Jul-25 01:33N 30°11' W 093°19'0 0.0
2016-Jul-25 00:33N 30°11' W 093°19'0 0.0
2016-Jul-24 23:33N 30°11' W 093°19'0 0.0
2016-Jul-24 22:33N 30°11' W 093°19'0 0.0
2016-Jul-24 21:33N 30°11' W 093°19'0 0.0
2016-Jul-24 20:33N 30°11' W 093°19'0 0.0
2016-Jul-24 19:33N 30°11' W 093°19'0 0.0
2016-Jul-24 18:33N 30°11' W 093°19'0 0.0
2016-Jul-24 17:33N 30°11' W 093°19'0 0.0
2016-Jul-24 16:33N 30°11' W 093°19'0 0.0
2016-Jul-24 15:33N 30°11' W 093°19'0 0.0
2016-Jul-24 14:33N 30°11' W 093°19'0 0.0
2016-Jul-24 13:33N 30°11' W 093°19'0 0.0
2016-Jul-24 12:33N 30°11' W 093°19'0 0.0
2016-Jul-24 11:33N 30°11' W 093°19'1 1.2
2016-Jul-24 10:33N 30°11' W 093°18'0 0.0
2016-Jul-24 09:33N 30°11' W 093°18'0 0.0
2016-Jul-24 08:33N 30°11' W 093°18'0 0.0
2016-Jul-24 07:33N 30°11' W 093°18'0 0.0
2016-Jul-24 06:33N 30°11' W 093°18'0 0.0
2016-Jul-24 05:33N 30°11' W 093°18'0 0.0
2016-Jul-24 04:33N 30°11' W 093°18'0 0.0
2016-Jul-24 03:33N 30°11' W 093°18'0 0.0
2016-Jul-24 02:33N 30°11' W 093°18'0 0.0
2016-Jul-24 01:33N 30°11' W 093°18'0 0.0
2016-Jul-24 00:32N 30°11' W 093°18'0 0.0
2016-Jul-23 23:33N 30°11' W 093°18'0 0.0
2016-Jul-23 22:33N 30°11' W 093°18'0 0.0
2016-Jul-23 21:33N 30°11' W 093°18'0 0.0
2016-Jul-23 20:33N 30°11' W 093°18'0 0.0
2016-Jul-23 19:33N 30°11' W 093°18'0 0.0
2016-Jul-23 18:33N 30°11' W 093°18'1 1.2
2016-Jul-23 17:33N 30°11' W 093°19'0 0.4
2016-Jul-23 16:33N 30°11' W 093°19'6 6.5
2016-Jul-23 15:33N 30°05' W 093°20'9 9.5
2016-Jul-23 14:33N 29°55' W 093°20'1110.7
2016-Jul-23 13:33N 29°44' W 093°20'4 4.1
2016-Jul-23 12:33N 29°41' W 093°18'1 0.3
2016-Jul-23 10:32N 29°41' W 093°19'0 0.0
2016-Jul-23 09:08N 29°41' W 093°19'0 0.0
2016-Jul-23 06:25N 29°41' W 093°19'0 0.0
2016-Jul-23 04:19N 29°41' W 093°19'0 0.0
2016-Jul-23 03:19N 29°41' W 093°19'0 0.0
2016-Jul-23 02:04N 29°41' W 093°19'0 0.0
2016-Jul-23 01:25N 29°41' W 093°19'0 0.0
2016-Jul-22 23:19N 29°41' W 093°19'0 0.0
2016-Jul-22 20:16N 29°41' W 093°19'0 0.0
2016-Jul-22 19:28N 29°41' W 093°19'0 0.0
2016-Jul-22 18:31N 29°41' W 093°19'0 0.0
2016-Jul-22 17:33N 29°41' W 093°19'0 0.0
2016-Jul-22 16:33N 29°41' W 093°19'  

Dump ship's entire track history